sensor_id;sensor_type;location;lat;lon;timestamp;temperature;humidity
59303;DHT22;45074;52.764;6.896;2023-02-28T00:00:21;4.30;99.90
59303;DHT22;45074;52.764;6.896;2023-02-28T00:02:47;4.30;99.90
59303;DHT22;45074;52.764;6.896;2023-02-28T00:05:14;3.80;99.90
59303;DHT22;45074;52.764;6.896;2023-02-28T00:07:40;4.20;99.90
59303;DHT22;45074;52.764;6.896;2023-02-28T00:10:06;4.20;99.90
59303;DHT22;45074;52.764;6.896;2023-02-28T00:12:33;4.20;99.90
59303;DHT22;45074;52.764;6.896;2023-02-28T00:14:59;4.10;99.90
59303;DHT22;45074;52.764;6.896;2023-02-28T00:17:24;1.40;99.90
59303;DHT22;45074;52.764;6.896;2023-02-28T00:19:50;4.20;99.90
59303;DHT22;45074;52.764;6.896;2023-02-28T00:22:16;4.10;99.90
59303;DHT22;45074;52.764;6.896;2023-02-28T00:24:42;7.10;99.90
59303;DHT22;45074;52.764;6.896;2023-02-28T00:27:08;4.20;99.90
59303;DHT22;45074;52.764;6.896;2023-02-28T00:29:33;4.20;99.90
59303;DHT22;45074;52.764;6.896;2023-02-28T00:31:59;4.20;99.90
59303;DHT22;45074;52.764;6.896;2023-02-28T00:34:24;4.20;99.90
59303;DHT22;45074;52.764;6.896;2023-02-28T00:36:50;5.60;99.90
59303;DHT22;45074;52.764;6.896;2023-02-28T00:39:15;6.40;99.90
59303;DHT22;45074;52.764;6.896;2023-02-28T00:41:41;7.20;99.90
59303;DHT22;45074;52.764;6.896;2023-02-28T00:44:07;4.20;99.90
59303;DHT22;45074;52.764;6.896;2023-02-28T00:46:32;4.20;99.90
59303;DHT22;45074;52.764;6.896;2023-02-28T00:48:58;4.80;99.90
59303;DHT22;45074;52.764;6.896;2023-02-28T00:51:23;4.20;99.90
59303;DHT22;45074;52.764;6.896;2023-02-28T00:53:49;4.30;99.90
59303;DHT22;45074;52.764;6.896;2023-02-28T00:56:14;5.80;99.90
59303;DHT22;45074;52.764;6.896;2023-02-28T00:58:40;4.30;99.90
59303;DHT22;45074;52.764;6.896;2023-02-28T01:01:06;4.30;99.90
59303;DHT22;45074;52.764;6.896;2023-02-28T01:03:32;4.30;99.90
59303;DHT22;45074;52.764;6.896;2023-02-28T01:05:57;4.30;99.90
59303;DHT22;45074;52.764;6.896;2023-02-28T01:08:23;4.30;99.90
59303;DHT22;45074;52.764;6.896;2023-02-28T01:10:49;4.30;99.90
59303;DHT22;45074;52.764;6.896;2023-02-28T01:13:14;4.30;99.90
59303;DHT22;45074;52.764;6.896;2023-02-28T01:15:41;4.30;99.90
59303;DHT22;45074;52.764;6.896;2023-02-28T01:18:07;4.30;99.90
59303;DHT22;45074;52.764;6.896;2023-02-28T01:20:33;4.30;99.90
59303;DHT22;45074;52.764;6.896;2023-02-28T01:22:58;4.20;99.90
59303;DHT22;45074;52.764;6.896;2023-02-28T01:25:24;4.30;99.90
59303;DHT22;45074;52.764;6.896;2023-02-28T01:27:49;4.30;99.90
59303;DHT22;45074;52.764;6.896;2023-02-28T01:30:15;4.60;99.90
59303;DHT22;45074;52.764;6.896;2023-02-28T01:32:40;4.20;99.90
59303;DHT22;45074;52.764;6.896;2023-02-28T01:35:06;4.10;99.90
59303;DHT22;45074;52.764;6.896;2023-02-28T01:37:31;4.20;99.90
59303;DHT22;45074;52.764;6.896;2023-02-28T01:39:57;4.20;99.90
59303;DHT22;45074;52.764;6.896;2023-02-28T01:42:22;7.30;99.90
59303;DHT22;45074;52.764;6.896;2023-02-28T01:45:02;4.20;99.90
59303;DHT22;45074;52.764;6.896;2023-02-28T01:47:29;4.20;99.90
59303;DHT22;45074;52.764;6.896;2023-02-28T01:49:55;5.50;99.90
59303;DHT22;45074;52.764;6.896;2023-02-28T01:52:21;4.10;99.90
59303;DHT22;45074;52.764;6.896;2023-02-28T01:54:51;5.60;99.90
59303;DHT22;45074;52.764;6.896;2023-02-28T01:57:18;4.10;99.90
59303;DHT22;45074;52.764;6.896;2023-02-28T02:00:18;4.10;99.90
59303;DHT22;45074;52.764;6.896;2023-02-28T02:02:38;4.10;99.90
59303;DHT22;45074;52.764;6.896;2023-02-28T02:05:08;4.10;99.90
59303;DHT22;45074;52.764;6.896;2023-02-28T02:07:35;4.10;99.90
59303;DHT22;45074;52.764;6.896;2023-02-28T02:15:05;4.10;99.90
59303;DHT22;45074;52.764;6.896;2023-02-28T02:17:36;4.10;99.90
59303;DHT22;45074;52.764;6.896;2023-02-28T02:20:20;4.10;99.90
59303;DHT22;45074;52.764;6.896;2023-02-28T02:23:01;4.00;99.90
59303;DHT22;45074;52.764;6.896;2023-02-28T02:27:59;4.00;99.90
59303;DHT22;45074;52.764;6.896;2023-02-28T02:35:52;5.90;99.90
59303;DHT22;45074;52.764;6.896;2023-02-28T02:38:21;3.80;99.90
59303;DHT22;45074;52.764;6.896;2023-02-28T02:40:56;6.50;99.90
59303;DHT22;45074;52.764;6.896;2023-02-28T02:43:29;4.00;99.90
59303;DHT22;45074;52.764;6.896;2023-02-28T02:48:49;2.10;99.90
59303;DHT22;45074;52.764;6.896;2023-02-28T02:51:16;3.90;99.90
59303;DHT22;45074;52.764;6.896;2023-02-28T02:53:47;6.90;99.90
59303;DHT22;45074;52.764;6.896;2023-02-28T02:56:15;3.90;99.90
59303;DHT22;45074;52.764;6.896;2023-02-28T02:58:42;4.00;99.90
59303;DHT22;45074;52.764;6.896;2023-02-28T03:01:10;3.90;99.90
59303;DHT22;45074;52.764;6.896;2023-02-28T03:03:36;3.90;99.90
59303;DHT22;45074;52.764;6.896;2023-02-28T03:06:02;7.00;99.90
59303;DHT22;45074;52.764;6.896;2023-02-28T03:08:29;4.00;99.90
59303;DHT22;45074;52.764;6.896;2023-02-28T03:11:02;4.00;99.90
59303;DHT22;45074;52.764;6.896;2023-02-28T03:24:31;3.90;99.90
59303;DHT22;45074;52.764;6.896;2023-02-28T03:26:58;3.90;99.90
59303;DHT22;45074;52.764;6.896;2023-02-28T03:32:00;3.90;99.90
59303;DHT22;45074;52.764;6.896;2023-02-28T03:34:33;3.90;99.90
59303;DHT22;45074;52.764;6.896;2023-02-28T03:37:02;3.90;99.90
59303;DHT22;45074;52.764;6.896;2023-02-28T03:39:52;3.90;99.90
59303;DHT22;45074;52.764;6.896;2023-02-28T03:42:21;1.70;99.90
59303;DHT22;45074;52.764;6.896;2023-02-28T03:44:49;3.90;99.90
59303;DHT22;45074;52.764;6.896;2023-02-28T03:47:19;4.00;99.90
59303;DHT22;45074;52.764;6.896;2023-02-28T03:49:49;7.20;99.90
59303;DHT22;45074;52.764;6.896;2023-02-28T03:52:15;3.20;99.90
59303;DHT22;45074;52.764;6.896;2023-02-28T03:54:50;4.00;99.90
59303;DHT22;45074;52.764;6.896;2023-02-28T04:00:12;3.90;99.90
59303;DHT22;45074;52.764;6.896;2023-02-28T04:02:39;3.90;99.90
59303;DHT22;45074;52.764;6.896;2023-02-28T04:05:05;3.80;99.90
59303;DHT22;45074;52.764;6.896;2023-02-28T04:07:32;3.90;99.90
59303;DHT22;45074;52.764;6.896;2023-02-28T04:09:57;3.80;99.90
59303;DHT22;45074;52.764;6.896;2023-02-28T04:12:23;6.30;99.90
59303;DHT22;45074;52.764;6.896;2023-02-28T04:14:49;3.80;99.90
59303;DHT22;45074;52.764;6.896;2023-02-28T04:17:15;3.70;99.90
59303;DHT22;45074;52.764;6.896;2023-02-28T04:19:40;5.70;99.90
59303;DHT22;45074;52.764;6.896;2023-02-28T04:22:07;3.70;99.90
59303;DHT22;45074;52.764;6.896;2023-02-28T04:24:33;3.80;99.90
59303;DHT22;45074;52.764;6.896;2023-02-28T04:26:58;4.20;99.90
59303;DHT22;45074;52.764;6.896;2023-02-28T04:29:27;3.70;99.90
59303;DHT22;45074;52.764;6.896;2023-02-28T04:31:53;3.70;99.90
59303;DHT22;45074;52.764;6.896;2023-02-28T04:34:20;3.70;99.90
59303;DHT22;45074;52.764;6.896;2023-02-28T04:36:46;3.60;99.90
59303;DHT22;45074;52.764;6.896;2023-02-28T04:39:14;3.70;99.90
59303;DHT22;45074;52.764;6.896;2023-02-28T04:41:40;3.70;99.90
59303;DHT22;45074;52.764;6.896;2023-02-28T04:44:05;5.80;99.90
59303;DHT22;45074;52.764;6.896;2023-02-28T04:46:31;3.70;99.90
59303;DHT22;45074;52.764;6.896;2023-02-28T04:48:57;3.70;99.90
59303;DHT22;45074;52.764;6.896;2023-02-28T04:51:23;3.70;99.90
59303;DHT22;45074;52.764;6.896;2023-02-28T04:53:48;3.70;99.90
59303;DHT22;45074;52.764;6.896;2023-02-28T04:56:15;3.70;99.90
59303;DHT22;45074;52.764;6.896;2023-02-28T04:58:41;3.40;99.90
59303;DHT22;45074;52.764;6.896;2023-02-28T05:01:14;3.70;99.90
59303;DHT22;45074;52.764;6.896;2023-02-28T05:03:39;3.70;99.90
59303;DHT22;45074;52.764;6.896;2023-02-28T05:06:08;3.60;99.90
59303;DHT22;45074;52.764;6.896;2023-02-28T05:08:33;3.70;99.90
59303;DHT22;45074;52.764;6.896;2023-02-28T05:10:59;3.60;99.90
59303;DHT22;45074;52.764;6.896;2023-02-28T05:13:26;3.60;99.90
59303;DHT22;45074;52.764;6.896;2023-02-28T05:15:51;3.60;99.90
59303;DHT22;45074;52.764;6.896;2023-02-28T05:18:17;2.90;99.90
59303;DHT22;45074;52.764;6.896;2023-02-28T05:20:42;3.60;99.90
59303;DHT22;45074;52.764;6.896;2023-02-28T05:23:08;3.90;99.90
59303;DHT22;45074;52.764;6.896;2023-02-28T05:25:36;3.60;99.90
59303;DHT22;45074;52.764;6.896;2023-02-28T05:28:02;3.60;99.90
59303;DHT22;45074;52.764;6.896;2023-02-28T05:30:28;3.60;99.90
59303;DHT22;45074;52.764;6.896;2023-02-28T05:32:53;3.60;99.90
59303;DHT22;45074;52.764;6.896;2023-02-28T05:35:19;3.60;99.90
59303;DHT22;45074;52.764;6.896;2023-02-28T05:37:44;7.00;99.90
59303;DHT22;45074;52.764;6.896;2023-02-28T05:40:10;6.10;99.90
59303;DHT22;45074;52.764;6.896;2023-02-28T05:42:36;3.60;99.90
59303;DHT22;45074;52.764;6.896;2023-02-28T05:45:01;3.60;99.90
59303;DHT22;45074;52.764;6.896;2023-02-28T05:47:27;3.50;99.90
59303;DHT22;45074;52.764;6.896;2023-02-28T05:49:52;3.60;99.90
59303;DHT22;45074;52.764;6.896;2023-02-28T05:52:18;3.50;99.90
59303;DHT22;45074;52.764;6.896;2023-02-28T05:54:43;3.50;99.90
59303;DHT22;45074;52.764;6.896;2023-02-28T05:57:09;3.50;99.90
59303;DHT22;45074;52.764;6.896;2023-02-28T05:59:34;3.50;99.90
59303;DHT22;45074;52.764;6.896;2023-02-28T06:02:05;6.40;99.90
59303;DHT22;45074;52.764;6.896;2023-02-28T06:04:30;3.50;99.90
59303;DHT22;45074;52.764;6.896;2023-02-28T06:06:56;3.50;99.90
59303;DHT22;45074;52.764;6.896;2023-02-28T06:09:22;5.50;99.90
59303;DHT22;45074;52.764;6.896;2023-02-28T06:11:48;3.50;99.90
59303;DHT22;45074;52.764;6.896;2023-02-28T06:14:15;3.50;99.90
59303;DHT22;45074;52.764;6.896;2023-02-28T06:16:40;2.60;99.90
59303;DHT22;45074;52.764;6.896;2023-02-28T06:19:06;3.50;99.90
59303;DHT22;45074;52.764;6.896;2023-02-28T06:21:31;6.60;99.90
59303;DHT22;45074;52.764;6.896;2023-02-28T06:23:57;3.50;99.90
59303;DHT22;45074;52.764;6.896;2023-02-28T06:26:23;3.00;99.90
59303;DHT22;45074;52.764;6.896;2023-02-28T06:28:49;3.50;99.90
59303;DHT22;45074;52.764;6.896;2023-02-28T06:31:16;3.50;99.90
59303;DHT22;45074;52.764;6.896;2023-02-28T06:33:42;3.40;99.90
59303;DHT22;45074;52.764;6.896;2023-02-28T06:36:08;3.50;99.90
59303;DHT22;45074;52.764;6.896;2023-02-28T06:38:34;3.50;99.90
59303;DHT22;45074;52.764;6.896;2023-02-28T06:41:00;3.50;99.90
59303;DHT22;45074;52.764;6.896;2023-02-28T06:43:27;3.50;99.90
59303;DHT22;45074;52.764;6.896;2023-02-28T06:45:57;3.50;99.90
59303;DHT22;45074;52.764;6.896;2023-02-28T06:48:23;3.50;99.90
59303;DHT22;45074;52.764;6.896;2023-02-28T06:50:49;3.50;99.90
59303;DHT22;45074;52.764;6.896;2023-02-28T06:53:14;3.60;99.90
59303;DHT22;45074;52.764;6.896;2023-02-28T06:55:40;3.60;99.90
59303;DHT22;45074;52.764;6.896;2023-02-28T06:58:06;3.60;99.90
59303;DHT22;45074;52.764;6.896;2023-02-28T07:00:41;6.20;99.90
59303;DHT22;45074;52.764;6.896;2023-02-28T07:03:07;3.60;99.90
59303;DHT22;45074;52.764;6.896;2023-02-28T07:05:36;6.60;99.90
59303;DHT22;45074;52.764;6.896;2023-02-28T07:08:02;3.70;99.90
59303;DHT22;45074;52.764;6.896;2023-02-28T07:10:28;3.70;99.90
59303;DHT22;45074;52.764;6.896;2023-02-28T07:12:54;3.80;99.90
59303;DHT22;45074;52.764;6.896;2023-02-28T07:15:19;3.70;99.90
59303;DHT22;45074;52.764;6.896;2023-02-28T07:17:45;3.70;99.90
59303;DHT22;45074;52.764;6.896;2023-02-28T07:20:10;3.60;99.90
59303;DHT22;45074;52.764;6.896;2023-02-28T07:22:36;3.60;99.90
59303;DHT22;45074;52.764;6.896;2023-02-28T07:25:02;3.40;99.90
59303;DHT22;45074;52.764;6.896;2023-02-28T07:27:27;3.60;99.90
59303;DHT22;45074;52.764;6.896;2023-02-28T07:29:53;2.80;99.90
59303;DHT22;45074;52.764;6.896;2023-02-28T07:32:19;3.50;99.90
59303;DHT22;45074;52.764;6.896;2023-02-28T07:34:44;3.50;99.90
59303;DHT22;45074;52.764;6.896;2023-02-28T07:37:10;3.40;99.90
59303;DHT22;45074;52.764;6.896;2023-02-28T07:39:35;6.70;99.90
59303;DHT22;45074;52.764;6.896;2023-02-28T07:42:04;3.40;99.90
59303;DHT22;45074;52.764;6.896;2023-02-28T07:44:30;0.50;99.90
59303;DHT22;45074;52.764;6.896;2023-02-28T07:46:55;3.20;99.90
59303;DHT22;45074;52.764;6.896;2023-02-28T07:49:21;1.60;99.90
59303;DHT22;45074;52.764;6.896;2023-02-28T07:51:46;5.60;99.90
59303;DHT22;45074;52.764;6.896;2023-02-28T07:54:12;1.40;99.90
59303;DHT22;45074;52.764;6.896;2023-02-28T07:56:37;6.10;99.90
59303;DHT22;45074;52.764;6.896;2023-02-28T07:59:03;3.40;99.90
59303;DHT22;45074;52.764;6.896;2023-02-28T08:01:28;3.60;99.90
59303;DHT22;45074;52.764;6.896;2023-02-28T08:03:54;3.60;99.90
59303;DHT22;45074;52.764;6.896;2023-02-28T08:06:23;3.70;99.90
59303;DHT22;45074;52.764;6.896;2023-02-28T08:08:49;3.70;99.90
59303;DHT22;45074;52.764;6.896;2023-02-28T08:11:15;3.80;99.90
59303;DHT22;45074;52.764;6.896;2023-02-28T08:13:41;7.40;99.90
59303;DHT22;45074;52.764;6.896;2023-02-28T08:16:09;3.90;99.90
59303;DHT22;45074;52.764;6.896;2023-02-28T08:18:34;7.00;99.90
59303;DHT22;45074;52.764;6.896;2023-02-28T08:21:05;4.10;99.90
59303;DHT22;45074;52.764;6.896;2023-02-28T08:23:30;3.10;99.90
59303;DHT22;45074;52.764;6.896;2023-02-28T08:25:58;4.10;99.90
59303;DHT22;45074;52.764;6.896;2023-02-28T08:28:24;4.40;99.90
59303;DHT22;45074;52.764;6.896;2023-02-28T08:30:49;4.20;99.90
59303;DHT22;45074;52.764;6.896;2023-02-28T08:33:15;4.20;99.90
59303;DHT22;45074;52.764;6.896;2023-02-28T08:35:40;4.20;99.90
59303;DHT22;45074;52.764;6.896;2023-02-28T08:38:06;5.90;99.90
59303;DHT22;45074;52.764;6.896;2023-02-28T08:40:31;6.90;99.90
59303;DHT22;45074;52.764;6.896;2023-02-28T08:42:57;4.30;99.90
59303;DHT22;45074;52.764;6.896;2023-02-28T08:45:23;4.50;99.90
59303;DHT22;45074;52.764;6.896;2023-02-28T08:47:49;7.20;99.90
59303;DHT22;45074;52.764;6.896;2023-02-28T08:50:17;4.70;99.90
59303;DHT22;45074;52.764;6.896;2023-02-28T08:52:43;1.40;99.90
59303;DHT22;45074;52.764;6.896;2023-02-28T08:55:09;4.70;99.90
59303;DHT22;45074;52.764;6.896;2023-02-28T08:57:35;5.60;99.90
59303;DHT22;45074;52.764;6.896;2023-02-28T09:00:00;4.80;99.90
59303;DHT22;45074;52.764;6.896;2023-02-28T09:02:32;4.80;99.90
59303;DHT22;45074;52.764;6.896;2023-02-28T09:04:57;4.70;99.90
59303;DHT22;45074;52.764;6.896;2023-02-28T09:07:23;1.40;99.90
59303;DHT22;45074;52.764;6.896;2023-02-28T09:09:49;4.80;99.90
59303;DHT22;45074;52.764;6.896;2023-02-28T09:12:21;5.20;99.90
59303;DHT22;45074;52.764;6.896;2023-02-28T09:14:47;4.80;99.90
59303;DHT22;45074;52.764;6.896;2023-02-28T09:17:12;7.40;99.90
59303;DHT22;45074;52.764;6.896;2023-02-28T09:19:38;5.00;99.90
59303;DHT22;45074;52.764;6.896;2023-02-28T09:22:04;7.10;99.90
59303;DHT22;45074;52.764;6.896;2023-02-28T09:24:29;8.60;99.90
59303;DHT22;45074;52.764;6.896;2023-02-28T09:26:56;5.40;99.90
59303;DHT22;45074;52.764;6.896;2023-02-28T09:29:22;5.50;99.90
59303;DHT22;45074;52.764;6.896;2023-02-28T09:31:48;5.60;99.90
59303;DHT22;45074;52.764;6.896;2023-02-28T09:34:13;7.30;99.90
59303;DHT22;45074;52.764;6.896;2023-02-28T09:36:39;5.70;99.90
59303;DHT22;45074;52.764;6.896;2023-02-28T09:39:05;6.10;99.90
59303;DHT22;45074;52.764;6.896;2023-02-28T09:41:35;5.80;99.90
59303;DHT22;45074;52.764;6.896;2023-02-28T09:44:02;4.40;99.90
59303;DHT22;45074;52.764;6.896;2023-02-28T09:46:31;6.00;99.90
59303;DHT22;45074;52.764;6.896;2023-02-28T09:48:57;6.20;99.90
59303;DHT22;45074;52.764;6.896;2023-02-28T09:51:49;6.10;99.90
59303;DHT22;45074;52.764;6.896;2023-02-28T09:54:15;6.10;99.90
59303;DHT22;45074;52.764;6.896;2023-02-28T09:56:45;6.30;99.90
59303;DHT22;45074;52.764;6.896;2023-02-28T09:59:14;6.50;99.90
59303;DHT22;45074;52.764;6.896;2023-02-28T10:01:47;6.60;99.90
59303;DHT22;45074;52.764;6.896;2023-02-28T10:04:24;6.60;99.90
59303;DHT22;45074;52.764;6.896;2023-02-28T10:06:56;5.70;99.90
59303;DHT22;45074;52.764;6.896;2023-02-28T10:09:24;7.70;99.90
59303;DHT22;45074;52.764;6.896;2023-02-28T10:11:52;7.00;99.90
59303;DHT22;45074;52.764;6.896;2023-02-28T10:17:01;6.60;99.90
59303;DHT22;45074;52.764;6.896;2023-02-28T10:22:50;7.40;99.90
59303;DHT22;45074;52.764;6.896;2023-02-28T10:24:46;7.30;99.90
59303;DHT22;45074;52.764;6.896;2023-02-28T10:29:38;7.30;99.90
59303;DHT22;45074;52.764;6.896;2023-02-28T10:32:05;7.10;99.90
59303;DHT22;45074;52.764;6.896;2023-02-28T10:34:31;7.00;99.90
59303;DHT22;45074;52.764;6.896;2023-02-28T10:36:56;7.30;99.90
59303;DHT22;45074;52.764;6.896;2023-02-28T10:39:36;7.50;99.90
59303;DHT22;45074;52.764;6.896;2023-02-28T10:42:03;7.50;99.90
59303;DHT22;45074;52.764;6.896;2023-02-28T10:44:28;7.70;99.90
59303;DHT22;45074;52.764;6.896;2023-02-28T10:46:54;7.70;99.90
59303;DHT22;45074;52.764;6.896;2023-02-28T10:49:24;7.60;99.90
59303;DHT22;45074;52.764;6.896;2023-02-28T10:51:52;7.40;99.90
59303;DHT22;45074;52.764;6.896;2023-02-28T10:54:19;7.50;99.90
59303;DHT22;45074;52.764;6.896;2023-02-28T10:56:44;7.90;99.90
59303;DHT22;45074;52.764;6.896;2023-02-28T10:59:29;7.70;99.90
59303;DHT22;45074;52.764;6.896;2023-02-28T11:01:56;5.70;99.90
59303;DHT22;45074;52.764;6.896;2023-02-28T11:09:35;7.20;99.90
59303;DHT22;45074;52.764;6.896;2023-02-28T11:12:04;7.20;99.90
59303;DHT22;45074;52.764;6.896;2023-02-28T11:14:32;7.30;99.90
59303;DHT22;45074;52.764;6.896;2023-02-28T11:17:02;7.20;99.90
59303;DHT22;45074;52.764;6.896;2023-02-28T11:19:31;6.00;99.90
59303;DHT22;45074;52.764;6.896;2023-02-28T11:21:59;7.00;99.90
59303;DHT22;45074;52.764;6.896;2023-02-28T11:24:29;7.00;99.90
59303;DHT22;45074;52.764;6.896;2023-02-28T11:26:55;7.00;99.90
59303;DHT22;45074;52.764;6.896;2023-02-28T11:29:22;7.00;99.90
59303;DHT22;45074;52.764;6.896;2023-02-28T11:34:37;6.90;99.90
59303;DHT22;45074;52.764;6.896;2023-02-28T11:37:03;6.80;99.90
59303;DHT22;45074;52.764;6.896;2023-02-28T11:39:32;6.80;99.90
59303;DHT22;45074;52.764;6.896;2023-02-28T11:42:09;6.90;99.90
59303;DHT22;45074;52.764;6.896;2023-02-28T11:47:11;7.00;99.90
59303;DHT22;45074;52.764;6.896;2023-02-28T12:02:26;7.60;99.90
59303;DHT22;45074;52.764;6.896;2023-02-28T12:10:26;8.10;99.90
59303;DHT22;45074;52.764;6.896;2023-02-28T12:18:24;9.40;99.90
59303;DHT22;45074;52.764;6.896;2023-02-28T12:21:04;9.80;99.90
59303;DHT22;45074;52.764;6.896;2023-02-28T12:29:02;11.60;99.90
59303;DHT22;45074;52.764;6.896;2023-02-28T12:31:30;14.20;99.90
59303;DHT22;45074;52.764;6.896;2023-02-28T12:33:59;14.20;99.90
59303;DHT22;45074;52.764;6.896;2023-02-28T12:36:26;13.90;99.90
59303;DHT22;45074;52.764;6.896;2023-02-28T12:38:55;13.80;99.90
59303;DHT22;45074;52.764;6.896;2023-02-28T12:44:07;14.40;99.90
59303;DHT22;45074;52.764;6.896;2023-02-28T12:46:36;11.20;99.90
59303;DHT22;45074;52.764;6.896;2023-02-28T12:49:38;15.10;99.90
59303;DHT22;45074;52.764;6.896;2023-02-28T12:51:57;15.10;99.90
59303;DHT22;45074;52.764;6.896;2023-02-28T12:54:26;15.50;99.90
59303;DHT22;45074;52.764;6.896;2023-02-28T12:56:56;15.30;99.90
59303;DHT22;45074;52.764;6.896;2023-02-28T13:02:26;14.90;99.90
59303;DHT22;45074;52.764;6.896;2023-02-28T13:05:00;15.50;99.90
59303;DHT22;45074;52.764;6.896;2023-02-28T13:10:11;15.50;99.90
59303;DHT22;45074;52.764;6.896;2023-02-28T13:12:46;15.70;99.90
59303;DHT22;45074;52.764;6.896;2023-02-28T13:15:19;16.20;99.90
59303;DHT22;45074;52.764;6.896;2023-02-28T13:17:48;16.20;99.90
59303;DHT22;45074;52.764;6.896;2023-02-28T13:20:15;16.50;99.90
59303;DHT22;45074;52.764;6.896;2023-02-28T13:22:42;16.80;99.90
59303;DHT22;45074;52.764;6.896;2023-02-28T13:27:47;17.10;99.90
59303;DHT22;45074;52.764;6.896;2023-02-28T13:35:44;17.70;99.90
59303;DHT22;45074;52.764;6.896;2023-02-28T13:38:15;18.10;99.90
59303;DHT22;45074;52.764;6.896;2023-02-28T13:40:41;17.80;99.90
59303;DHT22;45074;52.764;6.896;2023-02-28T13:43:08;17.70;99.90
59303;DHT22;45074;52.764;6.896;2023-02-28T13:45:33;17.80;99.90
59303;DHT22;45074;52.764;6.896;2023-02-28T13:48:04;18.30;99.90
59303;DHT22;45074;52.764;6.896;2023-02-28T13:53:19;18.50;99.90
59303;DHT22;45074;52.764;6.896;2023-02-28T14:06:34;18.20;99.90
59303;DHT22;45074;52.764;6.896;2023-02-28T14:08:55;18.60;99.90
59303;DHT22;45074;52.764;6.896;2023-02-28T14:11:26;18.10;99.90
59303;DHT22;45074;52.764;6.896;2023-02-28T14:13:52;18.40;99.90
59303;DHT22;45074;52.764;6.896;2023-02-28T14:16:21;18.50;99.90
59303;DHT22;45074;52.764;6.896;2023-02-28T14:18:55;18.70;99.90
59303;DHT22;45074;52.764;6.896;2023-02-28T14:21:28;18.80;99.90
59303;DHT22;45074;52.764;6.896;2023-02-28T14:26:29;19.20;99.90
59303;DHT22;45074;52.764;6.896;2023-02-28T14:31:47;16.10;99.90
59303;DHT22;45074;52.764;6.896;2023-02-28T14:34:23;19.20;99.90
59303;DHT22;45074;52.764;6.896;2023-02-28T14:36:50;19.20;99.90
59303;DHT22;45074;52.764;6.896;2023-02-28T14:39:27;19.20;99.90
59303;DHT22;45074;52.764;6.896;2023-02-28T14:41:56;19.00;99.90
59303;DHT22;45074;52.764;6.896;2023-02-28T14:44:25;19.20;99.90
59303;DHT22;45074;52.764;6.896;2023-02-28T14:46:55;19.20;99.90
59303;DHT22;45074;52.764;6.896;2023-02-28T14:49:26;19.20;99.90
59303;DHT22;45074;52.764;6.896;2023-02-28T14:52:12;19.30;99.90
59303;DHT22;45074;52.764;6.896;2023-02-28T14:54:40;19.80;99.90
59303;DHT22;45074;52.764;6.896;2023-02-28T14:57:06;19.60;99.90
59303;DHT22;45074;52.764;6.896;2023-02-28T14:59:33;19.80;99.90
59303;DHT22;45074;52.764;6.896;2023-02-28T15:04:40;20.00;99.90
59303;DHT22;45074;52.764;6.896;2023-02-28T15:07:10;19.80;99.90
59303;DHT22;45074;52.764;6.896;2023-02-28T15:09:36;19.70;99.90
59303;DHT22;45074;52.764;6.896;2023-02-28T15:12:01;20.10;99.90
59303;DHT22;45074;52.764;6.896;2023-02-28T15:14:27;19.90;99.90
59303;DHT22;45074;52.764;6.896;2023-02-28T15:16:58;20.20;99.90
59303;DHT22;45074;52.764;6.896;2023-02-28T15:19:32;20.40;99.90
59303;DHT22;45074;52.764;6.896;2023-02-28T15:22:04;20.50;99.90
59303;DHT22;45074;52.764;6.896;2023-02-28T15:26:58;20.40;99.90
59303;DHT22;45074;52.764;6.896;2023-02-28T15:29:25;20.30;99.90
59303;DHT22;45074;52.764;6.896;2023-02-28T15:31:56;20.30;99.90
59303;DHT22;45074;52.764;6.896;2023-02-28T15:34:35;19.60;99.90
59303;DHT22;45074;52.764;6.896;2023-02-28T15:37:01;19.70;99.90
59303;DHT22;45074;52.764;6.896;2023-02-28T15:39:27;19.60;99.90
59303;DHT22;45074;52.764;6.896;2023-02-28T15:42:12;19.40;99.90
59303;DHT22;45074;52.764;6.896;2023-02-28T15:44:38;19.30;99.90
59303;DHT22;45074;52.764;6.896;2023-02-28T15:52:17;17.80;99.90
59303;DHT22;45074;52.764;6.896;2023-02-28T15:54:43;19.30;99.90
59303;DHT22;45074;52.764;6.896;2023-02-28T15:57:13;18.70;99.90
59303;DHT22;45074;52.764;6.896;2023-02-28T15:59:39;17.80;99.90
59303;DHT22;45074;52.764;6.896;2023-02-28T16:02:12;17.70;99.90
59303;DHT22;45074;52.764;6.896;2023-02-28T16:04:54;16.60;99.90
59303;DHT22;45074;52.764;6.896;2023-02-28T16:07:19;16.40;99.90
59303;DHT22;45074;52.764;6.896;2023-02-28T16:09:45;15.40;99.90
59303;DHT22;45074;52.764;6.896;2023-02-28T16:12:12;16.60;99.90
59303;DHT22;45074;52.764;6.896;2023-02-28T16:14:38;14.70;99.90
59303;DHT22;45074;52.764;6.896;2023-02-28T16:17:06;14.50;99.90
59303;DHT22;45074;52.764;6.896;2023-02-28T16:19:34;14.20;99.90
59303;DHT22;45074;52.764;6.896;2023-02-28T16:22:00;13.80;99.90
59303;DHT22;45074;52.764;6.896;2023-02-28T16:24:26;13.60;99.90
59303;DHT22;45074;52.764;6.896;2023-02-28T16:26:52;13.30;99.90
59303;DHT22;45074;52.764;6.896;2023-02-28T16:29:26;13.50;99.90
59303;DHT22;45074;52.764;6.896;2023-02-28T16:31:52;13.70;99.90
59303;DHT22;45074;52.764;6.896;2023-02-28T16:34:19;13.80;99.90
59303;DHT22;45074;52.764;6.896;2023-02-28T16:36:48;13.60;99.90
59303;DHT22;45074;52.764;6.896;2023-02-28T16:39:14;13.00;99.90
59303;DHT22;45074;52.764;6.896;2023-02-28T16:41:41;11.30;99.90
59303;DHT22;45074;52.764;6.896;2023-02-28T16:44:09;11.80;99.90
59303;DHT22;45074;52.764;6.896;2023-02-28T16:46:36;11.30;99.90
59303;DHT22;45074;52.764;6.896;2023-02-28T16:49:01;10.90;99.90
59303;DHT22;45074;52.764;6.896;2023-02-28T16:51:27;10.70;99.90
59303;DHT22;45074;52.764;6.896;2023-02-28T16:53:53;10.30;99.90
59303;DHT22;45074;52.764;6.896;2023-02-28T16:56:27;10.10;99.90
59303;DHT22;45074;52.764;6.896;2023-02-28T16:58:54;11.20;99.90
59303;DHT22;45074;52.764;6.896;2023-02-28T17:01:21;9.90;99.90
59303;DHT22;45074;52.764;6.896;2023-02-28T17:03:47;9.70;99.90
59303;DHT22;45074;52.764;6.896;2023-02-28T17:06:17;9.50;99.90
59303;DHT22;45074;52.764;6.896;2023-02-28T17:08:43;10.70;99.90
59303;DHT22;45074;52.764;6.896;2023-02-28T17:11:09;9.10;99.90
59303;DHT22;45074;52.764;6.896;2023-02-28T17:13:34;9.30;99.90
59303;DHT22;45074;52.764;6.896;2023-02-28T17:16:00;10.10;99.90
59303;DHT22;45074;52.764;6.896;2023-02-28T17:18:26;8.90;99.90
59303;DHT22;45074;52.764;6.896;2023-02-28T17:20:54;8.90;99.90
59303;DHT22;45074;52.764;6.896;2023-02-28T17:23:19;12.30;99.90
59303;DHT22;45074;52.764;6.896;2023-02-28T17:25:45;8.60;99.90
59303;DHT22;45074;52.764;6.896;2023-02-28T17:28:19;8.50;99.90
59303;DHT22;45074;52.764;6.896;2023-02-28T17:30:45;7.70;99.90
59303;DHT22;45074;52.764;6.896;2023-02-28T17:33:12;8.30;99.90
59303;DHT22;45074;52.764;6.896;2023-02-28T17:35:38;8.20;99.90
59303;DHT22;45074;52.764;6.896;2023-02-28T17:38:04;8.20;99.90
59303;DHT22;45074;52.764;6.896;2023-02-28T17:40:29;8.10;99.90
59303;DHT22;45074;52.764;6.896;2023-02-28T17:42:55;8.00;99.90
59303;DHT22;45074;52.764;6.896;2023-02-28T17:45:22;7.90;99.90
59303;DHT22;45074;52.764;6.896;2023-02-28T17:47:48;8.10;99.90
59303;DHT22;45074;52.764;6.896;2023-02-28T17:50:15;7.70;99.90